sensor_id;sensor_type;location;lat;lon;timestamp;temperature;humidity
2441;DHT22;1231;53.988;9.470;2022-11-20T00:01:51;3.80;80.50
2441;DHT22;1231;53.988;9.470;2022-11-20T00:04:21;3.80;80.50
2441;DHT22;1231;53.988;9.470;2022-11-20T00:06:52;3.80;80.40
2441;DHT22;1231;53.988;9.470;2022-11-20T00:09:23;3.90;80.40
2441;DHT22;1231;53.988;9.470;2022-11-20T00:11:53;3.90;80.40
2441;DHT22;1231;53.988;9.470;2022-11-20T00:14:24;3.90;80.40
2441;DHT22;1231;53.988;9.470;2022-11-20T00:16:54;3.90;80.40
2441;DHT22;1231;53.988;9.470;2022-11-20T00:19:25;3.90;80.30
2441;DHT22;1231;53.988;9.470;2022-11-20T00:21:56;3.90;80.40
2441;DHT22;1231;53.988;9.470;2022-11-20T00:24:26;3.90;80.40
2441;DHT22;1231;53.988;9.470;2022-11-20T00:26:57;3.90;80.40
2441;DHT22;1231;53.988;9.470;2022-11-20T00:29:27;4.00;80.40
2441;DHT22;1231;53.988;9.470;2022-11-20T00:31:58;4.00;80.40
2441;DHT22;1231;53.988;9.470;2022-11-20T00:34:28;4.00;80.40
2441;DHT22;1231;53.988;9.470;2022-11-20T00:36:59;3.90;80.50
2441;DHT22;1231;53.988;9.470;2022-11-20T00:39:29;4.00;80.50
2441;DHT22;1231;53.988;9.470;2022-11-20T00:42:00;3.90;80.50
2441;DHT22;1231;53.988;9.470;2022-11-20T00:44:30;3.90;80.60
2441;DHT22;1231;53.988;9.470;2022-11-20T00:47:01;3.90;80.60
2441;DHT22;1231;53.988;9.470;2022-11-20T00:49:32;3.90;80.60
2441;DHT22;1231;53.988;9.470;2022-11-20T00:52:02;3.90;80.60
2441;DHT22;1231;53.988;9.470;2022-11-20T00:54:33;3.90;80.60
2441;DHT22;1231;53.988;9.470;2022-11-20T00:57:03;3.90;80.70
2441;DHT22;1231;53.988;9.470;2022-11-20T00:59:34;3.90;80.80
2441;DHT22;1231;53.988;9.470;2022-11-20T01:02:04;3.80;80.90
2441;DHT22;1231;53.988;9.470;2022-11-20T01:04:35;3.80;80.90
2441;DHT22;1231;53.988;9.470;2022-11-20T01:07:05;3.80;81.00
2441;DHT22;1231;53.988;9.470;2022-11-20T01:09:36;3.80;81.00
2441;DHT22;1231;53.988;9.470;2022-11-20T01:12:07;3.80;81.00
2441;DHT22;1231;53.988;9.470;2022-11-20T01:14:37;3.80;81.00
2441;DHT22;1231;53.988;9.470;2022-11-20T01:17:08;3.80;81.00
2441;DHT22;1231;53.988;9.470;2022-11-20T01:19:38;3.80;81.10
2441;DHT22;1231;53.988;9.470;2022-11-20T01:22:09;3.80;81.20
2441;DHT22;1231;53.988;9.470;2022-11-20T01:24:39;3.80;81.30
2441;DHT22;1231;53.988;9.470;2022-11-20T01:27:10;3.80;81.40
2441;DHT22;1231;53.988;9.470;2022-11-20T01:29:40;3.80;81.40
2441;DHT22;1231;53.988;9.470;2022-11-20T01:32:11;3.80;81.30
2441;DHT22;1231;53.988;9.470;2022-11-20T01:34:42;3.80;81.30
2441;DHT22;1231;53.988;9.470;2022-11-20T01:37:12;3.80;81.20
2441;DHT22;1231;53.988;9.470;2022-11-20T01:39:43;3.90;81.20
2441;DHT22;1231;53.988;9.470;2022-11-20T01:42:13;3.90;81.20
2441;DHT22;1231;53.988;9.470;2022-11-20T01:48:11;3.80;81.10
2441;DHT22;1231;53.988;9.470;2022-11-20T01:50:42;3.90;81.10
2441;DHT22;1231;53.988;9.470;2022-11-20T01:53:15;3.90;81.10
2441;DHT22;1231;53.988;9.470;2022-11-20T01:55:53;3.80;81.10
2441;DHT22;1231;53.988;9.470;2022-11-20T01:58:31;3.80;81.10
2441;DHT22;1231;53.988;9.470;2022-11-20T02:01:03;3.80;81.00
2441;DHT22;1231;53.988;9.470;2022-11-20T02:03:35;3.80;81.00
2441;DHT22;1231;53.988;9.470;2022-11-20T02:06:27;3.80;81.10
2441;DHT22;1231;53.988;9.470;2022-11-20T02:08:59;3.80;81.10
2441;DHT22;1231;53.988;9.470;2022-11-20T02:11:31;3.80;81.10
2441;DHT22;1231;53.988;9.470;2022-11-20T02:14:01;3.80;81.20
2441;DHT22;1231;53.988;9.470;2022-11-20T02:16:37;3.80;81.30
2441;DHT22;1231;53.988;9.470;2022-11-20T02:19:23;3.80;81.40
2441;DHT22;1231;53.988;9.470;2022-11-20T02:22:02;3.80;81.40
2441;DHT22;1231;53.988;9.470;2022-11-20T02:24:35;3.80;81.40
2441;DHT22;1231;53.988;9.470;2022-11-20T02:27:11;3.80;81.40
2441;DHT22;1231;53.988;9.470;2022-11-20T02:29:52;3.80;81.40
2441;DHT22;1231;53.988;9.470;2022-11-20T02:32:26;3.80;81.40
2441;DHT22;1231;53.988;9.470;2022-11-20T02:34:57;3.80;81.40
2441;DHT22;1231;53.988;9.470;2022-11-20T02:37:32;3.80;81.40
2441;DHT22;1231;53.988;9.470;2022-11-20T02:40:03;3.80;81.50
2441;DHT22;1231;53.988;9.470;2022-11-20T02:42:35;3.80;81.40
2441;DHT22;1231;53.988;9.470;2022-11-20T02:45:06;3.80;81.40
2441;DHT22;1231;53.988;9.470;2022-11-20T02:47:37;3.80;81.40
2441;DHT22;1231;53.988;9.470;2022-11-20T02:50:08;3.80;81.30
2441;DHT22;1231;53.988;9.470;2022-11-20T02:52:38;3.80;81.30
2441;DHT22;1231;53.988;9.470;2022-11-20T02:55:09;3.80;81.20
2441;DHT22;1231;53.988;9.470;2022-11-20T02:57:39;3.80;81.10
2441;DHT22;1231;53.988;9.470;2022-11-20T03:00:10;3.70;81.20
2441;DHT22;1231;53.988;9.470;2022-11-20T03:02:41;3.80;81.20
2441;DHT22;1231;53.988;9.470;2022-11-20T03:05:12;3.80;81.30
2441;DHT22;1231;53.988;9.470;2022-11-20T03:07:43;3.80;81.30
2441;DHT22;1231;53.988;9.470;2022-11-20T03:10:14;3.70;81.20
2441;DHT22;1231;53.988;9.470;2022-11-20T03:12:44;3.70;81.20
2441;DHT22;1231;53.988;9.470;2022-11-20T03:15:15;3.70;81.10
2441;DHT22;1231;53.988;9.470;2022-11-20T03:17:46;3.70;81.30
2441;DHT22;1231;53.988;9.470;2022-11-20T03:20:16;3.70;81.30
2441;DHT22;1231;53.988;9.470;2022-11-20T03:22:47;3.70;81.30
2441;DHT22;1231;53.988;9.470;2022-11-20T03:25:17;3.70;81.20
2441;DHT22;1231;53.988;9.470;2022-11-20T03:27:48;3.70;81.30
2441;DHT22;1231;53.988;9.470;2022-11-20T03:30:19;3.70;81.30
2441;DHT22;1231;53.988;9.470;2022-11-20T03:32:53;3.70;81.20
2441;DHT22;1231;53.988;9.470;2022-11-20T03:35:24;3.70;81.30
2441;DHT22;1231;53.988;9.470;2022-11-20T03:37:54;3.70;81.20
2441;DHT22;1231;53.988;9.470;2022-11-20T03:40:25;3.70;81.30
2441;DHT22;1231;53.988;9.470;2022-11-20T03:42:55;3.70;81.20
2441;DHT22;1231;53.988;9.470;2022-11-20T03:45:26;3.70;81.20
2441;DHT22;1231;53.988;9.470;2022-11-20T03:47:57;3.70;81.20
2441;DHT22;1231;53.988;9.470;2022-11-20T03:50:27;3.70;81.30
2441;DHT22;1231;53.988;9.470;2022-11-20T03:52:58;3.70;81.30
2441;DHT22;1231;53.988;9.470;2022-11-20T03:55:28;3.70;81.30
2441;DHT22;1231;53.988;9.470;2022-11-20T03:57:59;3.70;81.20
2441;DHT22;1231;53.988;9.470;2022-11-20T04:00:29;3.70;81.20
2441;DHT22;1231;53.988;9.470;2022-11-20T04:03:01;3.70;81.30
2441;DHT22;1231;53.988;9.470;2022-11-20T04:05:33;3.70;81.30
2441;DHT22;1231;53.988;9.470;2022-11-20T04:08:04;3.70;81.40
2441;DHT22;1231;53.988;9.470;2022-11-20T04:10:35;3.70;81.40
2441;DHT22;1231;53.988;9.470;2022-11-20T04:13:05;3.70;81.50
2441;DHT22;1231;53.988;9.470;2022-11-20T04:15:36;3.70;81.50
2441;DHT22;1231;53.988;9.470;2022-11-20T04:18:07;3.70;81.40
2441;DHT22;1231;53.988;9.470;2022-11-20T04:20:37;3.70;81.40
2441;DHT22;1231;53.988;9.470;2022-11-20T04:23:08;3.70;81.30
2441;DHT22;1231;53.988;9.470;2022-11-20T04:25:38;3.70;81.30
2441;DHT22;1231;53.988;9.470;2022-11-20T04:28:09;3.70;81.20
2441;DHT22;1231;53.988;9.470;2022-11-20T04:30:40;3.70;81.20
2441;DHT22;1231;53.988;9.470;2022-11-20T04:33:10;3.70;81.30
2441;DHT22;1231;53.988;9.470;2022-11-20T04:35:41;3.60;81.30
2441;DHT22;1231;53.988;9.470;2022-11-20T04:38:11;3.60;81.40
2441;DHT22;1231;53.988;9.470;2022-11-20T04:40:42;3.60;81.40
2441;DHT22;1231;53.988;9.470;2022-11-20T04:43:13;3.60;81.40
2441;DHT22;1231;53.988;9.470;2022-11-20T04:45:50;3.60;81.50
2441;DHT22;1231;53.988;9.470;2022-11-20T04:48:22;3.60;81.50
2441;DHT22;1231;53.988;9.470;2022-11-20T04:50:53;3.60;81.60
2441;DHT22;1231;53.988;9.470;2022-11-20T04:53:24;3.50;81.60
2441;DHT22;1231;53.988;9.470;2022-11-20T04:56:03;3.60;81.60
2441;DHT22;1231;53.988;9.470;2022-11-20T04:58:34;3.50;81.80
2441;DHT22;1231;53.988;9.470;2022-11-20T05:01:06;3.50;81.90
2441;DHT22;1231;53.988;9.470;2022-11-20T05:03:38;3.50;82.00
2441;DHT22;1231;53.988;9.470;2022-11-20T05:06:11;3.50;82.00
2441;DHT22;1231;53.988;9.470;2022-11-20T05:08:42;3.60;81.90
2441;DHT22;1231;53.988;9.470;2022-11-20T05:11:15;3.50;81.90
2441;DHT22;1231;53.988;9.470;2022-11-20T05:13:47;3.50;81.80
2441;DHT22;1231;53.988;9.470;2022-11-20T05:16:22;3.50;81.80
2441;DHT22;1231;53.988;9.470;2022-11-20T05:18:53;3.50;82.10
2441;DHT22;1231;53.988;9.470;2022-11-20T05:21:24;3.40;82.10
2441;DHT22;1231;53.988;9.470;2022-11-20T05:23:55;3.40;82.00
2441;DHT22;1231;53.988;9.470;2022-11-20T05:26:25;3.40;82.00
2441;DHT22;1231;53.988;9.470;2022-11-20T05:28:56;3.40;82.10
2441;DHT22;1231;53.988;9.470;2022-11-20T05:31:26;3.30;82.10
2441;DHT22;1231;53.988;9.470;2022-11-20T05:33:57;3.30;82.20
2441;DHT22;1231;53.988;9.470;2022-11-20T05:36:28;3.30;82.20
2441;DHT22;1231;53.988;9.470;2022-11-20T05:38:58;3.30;82.20
2441;DHT22;1231;53.988;9.470;2022-11-20T05:41:29;3.30;82.20
2441;DHT22;1231;53.988;9.470;2022-11-20T05:43:59;3.30;82.20
2441;DHT22;1231;53.988;9.470;2022-11-20T05:46:30;3.30;82.10
2441;DHT22;1231;53.988;9.470;2022-11-20T05:49:01;3.30;82.10
2441;DHT22;1231;53.988;9.470;2022-11-20T05:51:31;3.20;82.20
2441;DHT22;1231;53.988;9.470;2022-11-20T05:54:02;3.20;82.30
2441;DHT22;1231;53.988;9.470;2022-11-20T05:56:32;3.10;82.40
2441;DHT22;1231;53.988;9.470;2022-11-20T05:59:03;3.10;82.50
2441;DHT22;1231;53.988;9.470;2022-11-20T06:01:34;3.00;82.70
2441;DHT22;1231;53.988;9.470;2022-11-20T06:04:06;3.00;82.80
2441;DHT22;1231;53.988;9.470;2022-11-20T06:06:37;2.90;82.90
2441;DHT22;1231;53.988;9.470;2022-11-20T06:09:07;2.90;83.00
2441;DHT22;1231;53.988;9.470;2022-11-20T06:11:38;2.90;83.10
2441;DHT22;1231;53.988;9.470;2022-11-20T06:14:08;2.90;83.10
2441;DHT22;1231;53.988;9.470;2022-11-20T06:16:39;2.80;83.10
2441;DHT22;1231;53.988;9.470;2022-11-20T06:19:09;2.80;83.30
2441;DHT22;1231;53.988;9.470;2022-11-20T06:21:40;2.70;83.40
2441;DHT22;1231;53.988;9.470;2022-11-20T06:24:11;2.70;83.50
2441;DHT22;1231;53.988;9.470;2022-11-20T06:26:42;2.70;83.50
2441;DHT22;1231;53.988;9.470;2022-11-20T06:29:12;2.70;83.70
2441;DHT22;1231;53.988;9.470;2022-11-20T06:31:43;2.70;83.80
2441;DHT22;1231;53.988;9.470;2022-11-20T06:34:13;2.80;83.80
2441;DHT22;1231;53.988;9.470;2022-11-20T06:36:44;2.80;83.70
2441;DHT22;1231;53.988;9.470;2022-11-20T06:39:14;2.70;83.60
2441;DHT22;1231;53.988;9.470;2022-11-20T06:41:45;2.70;83.70
2441;DHT22;1231;53.988;9.470;2022-11-20T06:44:15;2.70;83.70
2441;DHT22;1231;53.988;9.470;2022-11-20T06:46:46;2.60;83.80
2441;DHT22;1231;53.988;9.470;2022-11-20T06:49:16;2.60;83.80
2441;DHT22;1231;53.988;9.470;2022-11-20T06:51:47;2.60;84.10
2441;DHT22;1231;53.988;9.470;2022-11-20T06:54:18;2.60;84.10
2441;DHT22;1231;53.988;9.470;2022-11-20T06:56:48;2.60;84.00
2441;DHT22;1231;53.988;9.470;2022-11-20T06:59:19;2.60;84.00
2441;DHT22;1231;53.988;9.470;2022-11-20T07:01:49;2.60;83.80
2441;DHT22;1231;53.988;9.470;2022-11-20T07:04:20;2.60;83.50
2441;DHT22;1231;53.988;9.470;2022-11-20T07:06:50;2.60;83.50
2441;DHT22;1231;53.988;9.470;2022-11-20T07:09:21;2.60;83.50
2441;DHT22;1231;53.988;9.470;2022-11-20T07:11:51;2.60;83.70
2441;DHT22;1231;53.988;9.470;2022-11-20T07:14:22;2.60;83.80
2441;DHT22;1231;53.988;9.470;2022-11-20T07:16:52;2.60;84.00
2441;DHT22;1231;53.988;9.470;2022-11-20T07:19:23;2.60;84.20
2441;DHT22;1231;53.988;9.470;2022-11-20T07:21:53;2.50;84.30
2441;DHT22;1231;53.988;9.470;2022-11-20T07:24:24;2.50;84.50
2441;DHT22;1231;53.988;9.470;2022-11-20T07:26:54;2.50;84.60
2441;DHT22;1231;53.988;9.470;2022-11-20T07:29:25;2.50;84.70
2441;DHT22;1231;53.988;9.470;2022-11-20T07:31:56;2.40;84.70
2441;DHT22;1231;53.988;9.470;2022-11-20T07:34:26;2.40;84.90
2441;DHT22;1231;53.988;9.470;2022-11-20T07:36:57;2.40;84.90
2441;DHT22;1231;53.988;9.470;2022-11-20T07:39:27;2.30;85.00
2441;DHT22;1231;53.988;9.470;2022-11-20T07:41:58;2.30;85.10
2441;DHT22;1231;53.988;9.470;2022-11-20T07:44:28;2.30;85.20
2441;DHT22;1231;53.988;9.470;2022-11-20T07:46:59;2.30;85.20
2441;DHT22;1231;53.988;9.470;2022-11-20T07:49:30;2.20;85.00
2441;DHT22;1231;53.988;9.470;2022-11-20T07:52:00;2.20;84.80
2441;DHT22;1231;53.988;9.470;2022-11-20T07:54:31;2.20;84.60
2441;DHT22;1231;53.988;9.470;2022-11-20T07:57:02;2.20;84.60
2441;DHT22;1231;53.988;9.470;2022-11-20T07:59:32;2.30;84.70
2441;DHT22;1231;53.988;9.470;2022-11-20T08:02:03;2.40;84.70
2441;DHT22;1231;53.988;9.470;2022-11-20T08:04:34;2.40;84.70
2441;DHT22;1231;53.988;9.470;2022-11-20T08:07:04;2.50;84.70
2441;DHT22;1231;53.988;9.470;2022-11-20T08:09:35;2.60;84.50
2441;DHT22;1231;53.988;9.470;2022-11-20T08:12:06;2.70;84.50
2441;DHT22;1231;53.988;9.470;2022-11-20T08:14:54;2.70;84.50
2441;DHT22;1231;53.988;9.470;2022-11-20T08:17:27;2.80;84.50
2441;DHT22;1231;53.988;9.470;2022-11-20T08:19:57;2.90;84.50
2441;DHT22;1231;53.988;9.470;2022-11-20T08:22:28;3.00;84.60
2441;DHT22;1231;53.988;9.470;2022-11-20T08:24:59;3.10;84.60
2441;DHT22;1231;53.988;9.470;2022-11-20T08:27:31;3.20;84.70
2441;DHT22;1231;53.988;9.470;2022-11-20T08:30:02;3.40;84.60
2441;DHT22;1231;53.988;9.470;2022-11-20T08:32:32;3.50;84.60
2441;DHT22;1231;53.988;9.470;2022-11-20T08:35:05;3.60;84.30
2441;DHT22;1231;53.988;9.470;2022-11-20T08:37:36;3.70;84.40
2441;DHT22;1231;53.988;9.470;2022-11-20T08:40:10;3.80;84.20
2441;DHT22;1231;53.988;9.470;2022-11-20T08:42:48;3.80;83.90
2441;DHT22;1231;53.988;9.470;2022-11-20T08:45:19;3.90;83.60
2441;DHT22;1231;53.988;9.470;2022-11-20T08:47:50;3.90;83.50
2441;DHT22;1231;53.988;9.470;2022-11-20T08:50:21;3.90;83.40
2441;DHT22;1231;53.988;9.470;2022-11-20T08:52:51;3.90;83.30
2441;DHT22;1231;53.988;9.470;2022-11-20T08:55:22;4.00;83.20
2441;DHT22;1231;53.988;9.470;2022-11-20T08:57:52;3.90;82.90
2441;DHT22;1231;53.988;9.470;2022-11-20T09:00:23;4.00;82.90
2441;DHT22;1231;53.988;9.470;2022-11-20T09:02:53;4.00;82.80
2441;DHT22;1231;53.988;9.470;2022-11-20T09:05:24;4.00;82.80
2441;DHT22;1231;53.988;9.470;2022-11-20T09:07:58;3.90;82.80
2441;DHT22;1231;53.988;9.470;2022-11-20T09:10:29;4.00;83.30
2441;DHT22;1231;53.988;9.470;2022-11-20T09:12:59;4.20;83.60
2441;DHT22;1231;53.988;9.470;2022-11-20T09:15:30;4.30;83.50
2441;DHT22;1231;53.988;9.470;2022-11-20T09:18:02;4.40;82.80
2441;DHT22;1231;53.988;9.470;2022-11-20T09:20:33;4.40;82.40
2441;DHT22;1231;53.988;9.470;2022-11-20T09:23:04;4.40;82.40
2441;DHT22;1231;53.988;9.470;2022-11-20T09:25:35;4.50;82.10
2441;DHT22;1231;53.988;9.470;2022-11-20T09:28:05;4.40;82.00
2441;DHT22;1231;53.988;9.470;2022-11-20T09:30:36;4.40;81.60
2441;DHT22;1231;53.988;9.470;2022-11-20T09:33:06;4.30;81.70
2441;DHT22;1231;53.988;9.470;2022-11-20T09:35:37;4.20;81.50
2441;DHT22;1231;53.988;9.470;2022-11-20T09:38:07;4.10;81.80
2441;DHT22;1231;53.988;9.470;2022-11-20T09:40:44;4.10;82.00
2441;DHT22;1231;53.988;9.470;2022-11-20T09:48:59;4.20;82.50
2441;DHT22;1231;53.988;9.470;2022-11-20T09:51:58;4.20;82.20
2441;DHT22;1231;53.988;9.470;2022-11-20T09:54:31;4.30;82.40
2441;DHT22;1231;53.988;9.470;2022-11-20T09:57:18;4.50;81.90
2441;DHT22;1231;53.988;9.470;2022-11-20T09:59:54;4.50;81.40
2441;DHT22;1231;53.988;9.470;2022-11-20T10:05:18;4.60;80.90
2441;DHT22;1231;53.988;9.470;2022-11-20T10:07:53;4.60;80.50
2441;DHT22;1231;53.988;9.470;2022-11-20T10:10:30;4.60;80.20
2441;DHT22;1231;53.988;9.470;2022-11-20T10:24:00;4.60;79.50
2441;DHT22;1231;53.988;9.470;2022-11-20T10:29:37;4.60;79.40
2441;DHT22;1231;53.988;9.470;2022-11-20T10:32:18;4.60;79.70
2441;DHT22;1231;53.988;9.470;2022-11-20T10:35:05;4.60;79.80
2441;DHT22;1231;53.988;9.470;2022-11-20T10:37:42;4.50;80.30
2441;DHT22;1231;53.988;9.470;2022-11-20T10:40:37;4.50;80.70
2441;DHT22;1231;53.988;9.470;2022-11-20T10:43:28;4.50;81.20
2441;DHT22;1231;53.988;9.470;2022-11-20T10:46:05;4.50;81.30
2441;DHT22;1231;53.988;9.470;2022-11-20T10:48:40;4.40;81.40
2441;DHT22;1231;53.988;9.470;2022-11-20T10:51:40;4.40;81.70
2441;DHT22;1231;53.988;9.470;2022-11-20T10:57:00;4.40;81.90
2441;DHT22;1231;53.988;9.470;2022-11-20T11:02:22;4.50;81.80
2441;DHT22;1231;53.988;9.470;2022-11-20T11:04:54;4.50;81.80
2441;DHT22;1231;53.988;9.470;2022-11-20T11:07:29;4.50;81.90
2441;DHT22;1231;53.988;9.470;2022-11-20T11:10:01;4.60;82.10
2441;DHT22;1231;53.988;9.470;2022-11-20T11:12:31;4.70;82.10
2441;DHT22;1231;53.988;9.470;2022-11-20T11:15:03;4.80;82.00
2441;DHT22;1231;53.988;9.470;2022-11-20T11:17:34;4.90;81.70
2441;DHT22;1231;53.988;9.470;2022-11-20T11:22:53;5.10;81.30
2441;DHT22;1231;53.988;9.470;2022-11-20T11:28:19;4.90;80.60
2441;DHT22;1231;53.988;9.470;2022-11-20T11:30:50;4.90;80.60
2441;DHT22;1231;53.988;9.470;2022-11-20T11:33:28;4.90;80.90
2441;DHT22;1231;53.988;9.470;2022-11-20T11:36:01;4.90;80.90
2441;DHT22;1231;53.988;9.470;2022-11-20T11:38:38;5.00;81.00
2441;DHT22;1231;53.988;9.470;2022-11-20T11:41:14;4.90;80.40
2441;DHT22;1231;53.988;9.470;2022-11-20T11:43:54;4.90;80.40
2441;DHT22;1231;53.988;9.470;2022-11-20T11:46:52;4.90;80.30
2441;DHT22;1231;53.988;9.470;2022-11-20T11:49:23;4.90;80.30
2441;DHT22;1231;53.988;9.470;2022-11-20T11:52:14;5.00;80.10
2441;DHT22;1231;53.988;9.470;2022-11-20T11:54:53;5.20;80.20
2441;DHT22;1231;53.988;9.470;2022-11-20T12:00:18;5.20;78.80
2441;DHT22;1231;53.988;9.470;2022-11-20T12:05:46;4.90;78.10
2441;DHT22;1231;53.988;9.470;2022-11-20T12:11:04;4.80;77.80
2441;DHT22;1231;53.988;9.470;2022-11-20T12:13:48;4.70;78.00
2441;DHT22;1231;53.988;9.470;2022-11-20T12:16:21;4.80;77.80
2441;DHT22;1231;53.988;9.470;2022-11-20T12:18:52;4.80;78.00
2441;DHT22;1231;53.988;9.470;2022-11-20T12:37:58;4.80;76.90
2441;DHT22;1231;53.988;9.470;2022-11-20T12:41:00;4.90;77.10
2441;DHT22;1231;53.988;9.470;2022-11-20T12:43:45;5.10;76.90
2441;DHT22;1231;53.988;9.470;2022-11-20T12:46:48;5.20;76.40
2441;DHT22;1231;53.988;9.470;2022-11-20T12:52:23;5.50;75.90
2441;DHT22;1231;53.988;9.470;2022-11-20T12:55:20;5.70;75.70
2441;DHT22;1231;53.988;9.470;2022-11-20T13:07:11;5.90;73.00
2441;DHT22;1231;53.988;9.470;2022-11-20T13:09:47;5.70;72.00
2441;DHT22;1231;53.988;9.470;2022-11-20T13:12:39;5.60;71.70
2441;DHT22;1231;53.988;9.470;2022-11-20T13:15:30;5.40;71.70
2441;DHT22;1231;53.988;9.470;2022-11-20T13:18:05;5.20;71.80
2441;DHT22;1231;53.988;9.470;2022-11-20T13:20:45;5.00;71.90
2441;DHT22;1231;53.988;9.470;2022-11-20T13:23:24;4.80;72.20
2441;DHT22;1231;53.988;9.470;2022-11-20T13:26:17;4.80;72.70
2441;DHT22;1231;53.988;9.470;2022-11-20T13:29:09;4.90;73.00
2441;DHT22;1231;53.988;9.470;2022-11-20T13:31:44;5.00;72.90
2441;DHT22;1231;53.988;9.470;2022-11-20T13:34:26;5.20;72.80
2441;DHT22;1231;53.988;9.470;2022-11-20T13:36:58;5.30;72.70
2441;DHT22;1231;53.988;9.470;2022-11-20T13:39:33;5.50;72.80
2441;DHT22;1231;53.988;9.470;2022-11-20T13:44:48;6.10;72.50
2441;DHT22;1231;53.988;9.470;2022-11-20T13:47:26;6.30;72.40
2441;DHT22;1231;53.988;9.470;2022-11-20T13:49:58;6.50;71.60
2441;DHT22;1231;53.988;9.470;2022-11-20T13:55:38;6.70;70.90
2441;DHT22;1231;53.988;9.470;2022-11-20T14:01:19;6.80;70.40
2441;DHT22;1231;53.988;9.470;2022-11-20T14:03:50;6.60;70.60
2441;DHT22;1231;53.988;9.470;2022-11-20T14:06:33;6.40;70.70
2441;DHT22;1231;53.988;9.470;2022-11-20T14:09:04;6.30;70.40
2441;DHT22;1231;53.988;9.470;2022-11-20T14:11:35;6.10;70.20
2441;DHT22;1231;53.988;9.470;2022-11-20T14:14:46;6.00;69.70
2441;DHT22;1231;53.988;9.470;2022-11-20T14:19:49;5.90;69.50
2441;DHT22;1231;53.988;9.470;2022-11-20T14:22:25;5.80;69.50
2441;DHT22;1231;53.988;9.470;2022-11-20T14:27:42;5.70;69.30
2441;DHT22;1231;53.988;9.470;2022-11-20T14:30:15;5.70;69.40
2441;DHT22;1231;53.988;9.470;2022-11-20T14:32:47;5.60;69.60
2441;DHT22;1231;53.988;9.470;2022-11-20T14:35:24;5.50;69.80
2441;DHT22;1231;53.988;9.470;2022-11-20T14:37:55;5.40;70.00
2441;DHT22;1231;53.988;9.470;2022-11-20T14:40:36;5.30;70.30
2441;DHT22;1231;53.988;9.470;2022-11-20T14:43:27;5.30;70.70
2441;DHT22;1231;53.988;9.470;2022-11-20T14:46:00;5.20;71.20
2441;DHT22;1231;53.988;9.470;2022-11-20T14:48:37;5.20;71.50
2441;DHT22;1231;53.988;9.470;2022-11-20T14:51:29;5.10;71.90
2441;DHT22;1231;53.988;9.470;2022-11-20T14:54:18;5.10;72.30
2441;DHT22;1231;53.988;9.470;2022-11-20T14:57:01;5.10;72.60
2441;DHT22;1231;53.988;9.470;2022-11-20T14:59:33;5.00;72.90
2441;DHT22;1231;53.988;9.470;2022-11-20T15:02:08;5.00;73.30
2441;DHT22;1231;53.988;9.470;2022-11-20T15:04:51;4.90;73.50
2441;DHT22;1231;53.988;9.470;2022-11-20T15:07:29;4.80;73.70
2441;DHT22;1231;53.988;9.470;2022-11-20T15:10:10;4.80;73.80
2441;DHT22;1231;53.988;9.470;2022-11-20T15:15:36;4.70;74.00
2441;DHT22;1231;53.988;9.470;2022-11-20T15:18:20;4.60;74.10
2441;DHT22;1231;53.988;9.470;2022-11-20T15:20:51;4.60;74.20
2441;DHT22;1231;53.988;9.470;2022-11-20T15:23:23;4.50;74.20
2441;DHT22;1231;53.988;9.470;2022-11-20T15:25:54;4.40;74.20
2441;DHT22;1231;53.988;9.470;2022-11-20T15:28:34;4.40;74.30
2441;DHT22;1231;53.988;9.470;2022-11-20T15:31:05;4.30;74.30
2441;DHT22;1231;53.988;9.470;2022-11-20T15:33:36;4.30;74.40
2441;DHT22;1231;53.988;9.470;2022-11-20T15:36:06;4.20;74.50
2441;DHT22;1231;53.988;9.470;2022-11-20T15:38:37;4.10;74.80
2441;DHT22;1231;53.988;9.470;2022-11-20T15:41:08;4.00;74.90
2441;DHT22;1231;53.988;9.470;2022-11-20T15:43:39;3.90;75.00
2441;DHT22;1231;53.988;9.470;2022-11-20T15:46:13;3.80;75.00
2441;DHT22;1231;53.988;9.470;2022-11-20T15:48:45;3.70;75.20
2441;DHT22;1231;53.988;9.470;2022-11-20T15:51:31;3.50;75.40
2441;DHT22;1231;53.988;9.470;2022-11-20T15:54:10;3.40;75.90
2441;DHT22;1231;53.988;9.470;2022-11-20T15:56:42;3.40;76.20
2441;DHT22;1231;53.988;9.470;2022-11-20T15:59:12;3.30;76.50
2441;DHT22;1231;53.988;9.470;2022-11-20T16:01:45;3.30;76.80
2441;DHT22;1231;53.988;9.470;2022-11-20T16:04:16;3.20;76.90
2441;DHT22;1231;53.988;9.470;2022-11-20T16:06:47;3.20;77.10
2441;DHT22;1231;53.988;9.470;2022-11-20T16:09:17;3.10;77.20
2441;DHT22;1231;53.988;9.470;2022-11-20T16:11:48;3.00;77.40
2441;DHT22;1231;53.988;9.470;2022-11-20T16:14:18;2.90;77.60
2441;DHT22;1231;53.988;9.470;2022-11-20T16:17:08;2.80;77.90
2441;DHT22;1231;53.988;9.470;2022-11-20T16:19:38;2.70;78.10
2441;DHT22;1231;53.988;9.470;2022-11-20T16:22:11;2.70;78.10
2441;DHT22;1231;53.988;9.470;2022-11-20T16:24:41;2.60;78.20
2441;DHT22;1231;53.988;9.470;2022-11-20T16:27:12;2.60;78.10
2441;DHT22;1231;53.988;9.470;2022-11-20T16:29:42;2.50;78.20
2441;DHT22;1231;53.988;9.470;2022-11-20T16:32:13;2.50;78.50
2441;DHT22;1231;53.988;9.470;2022-11-20T16:34:43;2.40;78.70
2441;DHT22;1231;53.988;9.470;2022-11-20T16:37:14;2.40;78.80
2441;DHT22;1231;53.988;9.470;2022-11-20T16:39:44;2.40;79.20
2441;DHT22;1231;53.988;9.470;2022-11-20T16:42:15;2.30;79.30
2441;DHT22;1231;53.988;9.470;2022-11-20T16:44:45;2.20;79.40
2441;DHT22;1231;53.988;9.470;2022-11-20T16:47:17;2.20;79.50
2441;DHT22;1231;53.988;9.470;2022-11-20T16:49:47;2.10;79.70
2441;DHT22;1231;53.988;9.470;2022-11-20T16:52:18;2.00;79.80
2441;DHT22;1231;53.988;9.470;2022-11-20T16:54:48;2.00;80.00
2441;DHT22;1231;53.988;9.470;2022-11-20T16:57:19;1.90;80.00
2441;DHT22;1231;53.988;9.470;2022-11-20T16:59:49;1.90;80.00
2441;DHT22;1231;53.988;9.470;2022-11-20T17:02:20;1.80;80.20
2441;DHT22;1231;53.988;9.470;2022-11-20T17:04:51;1.80;80.30
2441;DHT22;1231;53.988;9.470;2022-11-20T17:07:22;1.70;80.40
2441;DHT22;1231;53.988;9.470;2022-11-20T17:09:52;1.70;80.50
2441;DHT22;1231;53.988;9.470;2022-11-20T17:12:23;1.70;80.90
2441;DHT22;1231;53.988;9.470;2022-11-20T17:14:54;1.70;80.90
2441;DHT22;1231;53.988;9.470;2022-11-20T17:17:24;1.70;81.00
2441;DHT22;1231;53.988;9.470;2022-11-20T17:19:55;1.70;81.00
2441;DHT22;1231;53.988;9.470;2022-11-20T17:22:25;1.70;81.30
2441;DHT22;1231;53.988;9.470;2022-11-20T17:24:57;1.70;81.40
2441;DHT22;1231;53.988;9.470;2022-11-20T17:27:27;1.70;81.60
2441;DHT22;1231;53.988;9.470;2022-11-20T17:29:58;1.80;81.90
2441;DHT22;1231;53.988;9.470;2022-11-20T17:32:28;1.80;81.90
2441;DHT22;1231;53.988;9.470;2022-11-20T17:34:59;1.80;82.00
2441;DHT22;1231;53.988;9.470;2022-11-20T17:37:29;1.80;82.00
2441;DHT22;1231;53.988;9.470;2022-11-20T17:40:00;1.80;82.10
2441;DHT22;1231;53.988;9.470;2022-11-20T17:42:31;1.80;82.10
2441;DHT22;1231;53.988;9.470;2022-11-20T17:45:06;1.80;82.20
2441;DHT22;1231;53.988;9.470;2022-11-20T17:47:38;1.80;82.20
2441;DHT22;1231;53.988;9.470;2022-11-20T17:50:09;1.90;82.10
2441;DHT22;1231;53.988;9.470;2022-11-20T17:52:39;1.90;81.80
2441;DHT22;1231;53.988;9.470;2022-11-20T17:55:10;1.90;81.70
2441;DHT22;1231;53.988;9.470;2022-11-20T17:57:41;1.90;81.60
2441;DHT22;1231;53.988;9.470;2022-11-20T18:00:25;1.90;81.60
2441;DHT22;1231;53.988;9.470;2022-11-20T18:02:56;1.90;81.50
2441;DHT22;1231;53.988;9.470;2022-11-20T18:05:28;1.90;81.50
2441;DHT22;1231;53.988;9.470;2022-11-20T18:07:58;1.90;81.60
2441;DHT22;1231;53.988;9.470;2022-11-20T18:10:30;1.90;81.60
2441;DHT22;1231;53.988;9.470;2022-11-20T18:13:00;1.80;81.70
2441;DHT22;1231;53.988;9.470;2022-11-20T18:15:31;1.90;81.70
2441;DHT22;1231;53.988;9.470;2022-11-20T18:18:02;1.90;81.70
2441;DHT22;1231;53.988;9.470;2022-11-20T18:20:32;1.90;81.70
2441;DHT22;1231;53.988;9.470;2022-11-20T18:23:03;1.90;81.70
2441;DHT22;1231;53.988;9.470;2022-11-20T18:25:34;1.90;81.70
2441;DHT22;1231;53.988;9.470;2022-11-20T18:28:04;1.90;81.80